Nashville, TN (37219)

2:38 AM CST on January 30, 2015 (GMT -0600)
APRSWXNET Nashville TN US | Change Station
CLOSE
Current Station
Personal Weather Station
Location: Nashville, TN
Elevation: 728 ft
Nearby Weather Stations

Elev 728 ft 36.14 °N, 86.80 °W | Updated 33 minutes ago

Overcast
Overcast
38 °F
Feels Like 31 °F
N
10
Wind Variable Wind from WNW
Gusts 17.0 mph

Today
High -- | Low -- °F
--% Chance of Precip.
Yesterday
High -- | Low -- °F
Precip. -- in
6:49 AM 5:11 PM
Waxing Gibbous, 81% visible
Pressure 30.36 in
Visibility 10.0 miles
Clouds Scattered Clouds 2100 ft
Mostly Cloudy 3000 ft
Overcast 3700 ft
Windchill 31 °F
Dew Point 31 °F
Humidity 77%
Rainfall 0.01 in
Snow Depth Not available.
UV 0 out of 12
Pollen 2.20 out of 12
Air Quality Not available.
Flu Activity Not available.
SPECI KBNA 300804Z 33011G20KT 10SM SCT021 BKN030 OVC037 03/M01 A3036 RMK AO2

More Conditions Fewer Conditions

Pressure 30.36 in
Visibility 10.0 miles
Clouds Scattered Clouds 2100 ft
Mostly Cloudy 3000 ft
Overcast 3700 ft
Windchill 31 °F
Dew Point 31 °F
Humidity 77%
Rainfall 0.01 in
Snow Depth Not available.
UV 0 out of 12
Pollen 2.20 out of 12
Air Quality Not available.
Flu Activity Not available.
SPECI KBNA 300804Z 33011G20KT 10SM SCT021 BKN030 OVC037 03/M01 A3036 RMK AO2

More Conditions Fewer Conditions

10-Day Weather Forecast

Almanac

Astronomy

Jan. 30, 2015 Rise Set
Actual Time
Civil Twilight
Nautical Twilight
Astronomical Twilight
Moon
Length of Visible Light
Length of Day
Tomorrow will be .
, % of the Moon is Illuminated

Today's Extremes

State Highs State Lows

Community

WunderPhotos

Upload Photos

1,791,730 photos uploaded!

WunderBlogs® & News

Nearby

Air Quality

  Air Quality AQ Index Pollutant
Not available.

Snow Depth

Station Depth Elevation

Earthquake Activity

City Distance Mag. Time & Date
Minimum magnitude displayed is 2.5.

Coastal Water Temperatures

Place Temperature

Nearby Weather Stations